Time;durP1;ratioP1;P1;durP2;ratioP2;P2;SDS_P1;SDS_P2;PMS_P1;PMS_P2;Temp;Humidity;BMP_temperature;BMP_pressure;BME280_temperature;BME280_humidity;BME280_pressure;Samples;Min_cycle;Max_cycle;Signal;HPM_P1;HPM_P2
2023/02/09 00:01:15;;;;;;;14.25;3.45;;;;;;;;;;5054094;28;20539;-36
2023/02/09 00:03:43;;;;;;;11.52;3.65;;;;;;;;;;5054163;28;20581;-36
2023/02/09 00:06:11;;;;;;;13.27;4.03;;;;;;;;;;5054226;28;20028;-35
2023/02/09 00:08:38;;;;;;;14.77;3.05;;;;;;;;;;5054171;28;20029;-35
2023/02/09 00:14:27;;;;;;;12.80;2.90;;;;;;;;;;5034137;28;20041;-35
2023/02/09 00:16:54;;;;;;;12.88;3.80;;;;;;;;;;5053861;28;20537;-35
2023/02/09 00:19:21;;;;;;;10.80;3.40;;;;;;;;;;5053839;28;20029;-36
2023/02/09 00:21:48;;;;;;;15.02;3.15;;;;;;;;;;5053799;28;20108;-35
2023/02/09 00:24:15;;;;;;;11.63;3.50;;;;;;;;;;5053734;28;20029;-36
2023/02/09 00:26:42;;;;;;;10.07;2.92;;;;;;;;;;5053916;28;20029;-36
2023/02/09 00:29:09;;;;;;;14.50;3.45;;;;;;;;;;5053792;28;20115;-35
2023/02/09 00:31:36;;;;;;;18.27;3.80;;;;;;;;;;5053726;28;20052;-36
2023/02/09 00:34:03;;;;;;;13.65;3.40;;;;;;;;;;5053529;28;20044;-35
2023/02/09 00:36:30;;;;;;;13.63;3.65;;;;;;;;;;5053637;28;20108;-36
2023/02/09 00:38:57;;;;;;;14.82;3.30;;;;;;;;;;5053478;28;20114;-35
2023/02/09 00:44:10;;;;;;;15.13;3.67;;;;;;;;;;5053344;28;20552;-35
2023/02/09 00:46:37;;;;;;;16.58;3.78;;;;;;;;;;5053339;28;20475;-35
2023/02/09 00:49:04;;;;;;;16.25;3.63;;;;;;;;;;5053419;28;20041;-36
2023/02/09 00:51:31;;;;;;;12.40;3.58;;;;;;;;;;5053384;28;20067;-36
2023/02/09 00:53:58;;;;;;;12.68;3.67;;;;;;;;;;5053261;28;20044;-35
2023/02/09 00:56:25;;;;;;;16.73;4.28;;;;;;;;;;5053294;28;20071;-36
2023/02/09 00:58:52;;;;;;;18.17;3.80;;;;;;;;;;5052871;28;20048;-36
2023/02/09 01:01:19;;;;;;;17.55;3.42;;;;;;;;;;5053193;28;20673;-35
2023/02/09 01:03:47;;;;;;;11.57;3.53;;;;;;;;;;5053043;28;20032;-36
2023/02/09 01:06:14;;;;;;;16.05;3.47;;;;;;;;;;5053128;28;20025;-36
2023/02/09 01:08:41;;;;;;;17.33;3.53;;;;;;;;;;5052934;28;20132;-36
2023/02/09 01:11:12;;;;;;;13.52;3.92;;;;;;;;;;5052918;28;20356;-36
2023/02/09 01:13:39;;;;;;;21.05;4.25;;;;;;;;;;5052322;28;20040;-37
2023/02/09 01:16:16;;;;;;;16.50;3.60;;;;;;;;;;5052910;28;20025;-35
2023/02/09 01:18:44;;;;;;;15.88;3.78;;;;;;;;;;5052783;28;20488;-36
2023/02/09 01:21:15;;;;;;;12.43;3.25;;;;;;;;;;5052773;28;20399;-36
2023/02/09 01:23:42;;;;;;;15.52;3.75;;;;;;;;;;5052601;28;20029;-36
2023/02/09 01:26:10;;;;;;;14.02;3.60;;;;;;;;;;5052716;28;20064;-36
2023/02/09 01:28:37;;;;;;;14.25;3.53;;;;;;;;;;5052071;28;20057;-36
2023/02/09 01:31:05;;;;;;;16.98;3.53;;;;;;;;;;5052580;28;20025;-36
2023/02/09 01:33:32;;;;;;;14.70;3.58;;;;;;;;;;5052567;28;20025;-36
2023/02/09 01:36:03;;;;;;;18.48;3.53;;;;;;;;;;5052516;28;20099;-37
2023/02/09 01:38:30;;;;;;;19.65;4.32;;;;;;;;;;5052371;28;20029;-36
2023/02/09 01:40:57;;;;;;;16.88;3.88;;;;;;;;;;5052453;28;20498;-36
2023/02/09 01:43:24;;;;;;;11.80;3.55;;;;;;;;;;5052202;28;20399;-37
2023/02/09 01:45:55;;;;;;;10.85;3.63;;;;;;;;;;5052364;28;20128;-37
2023/02/09 01:48:25;;;;;;;13.55;4.20;;;;;;;;;;5052254;28;20376;-36
2023/02/09 01:50:54;;;;;;;11.85;3.28;;;;;;;;;;5052237;28;20360;-37
2023/02/09 01:53:22;;;;;;;15.45;3.47;;;;;;;;;;5051620;28;20124;-36
2023/02/09 01:56:02;;;;;;;10.68;3.25;;;;;;;;;;5052010;28;20430;-35
2023/02/09 01:58:29;;;;;;;10.65;3.58;;;;;;;;;;5051725;28;20166;-35
2023/02/09 02:00:56;;;;;;;14.98;3.80;;;;;;;;;;5052101;28;20546;-35
2023/02/09 02:03:26;;;;;;;10.80;3.22;;;;;;;;;;5051951;28;20021;-36
2023/02/09 02:05:55;;;;;;;13.43;3.80;;;;;;;;;;5051891;28;20435;-35
2023/02/09 02:08:22;;;;;;;12.07;3.28;;;;;;;;;;5051871;28;20028;-37
2023/02/09 02:10:50;;;;;;;10.65;2.90;;;;;;;;;;5051825;28;20044;-36
2023/02/09 02:13:18;;;;;;;12.43;3.28;;;;;;;;;;5051749;28;20079;-36
2023/02/09 02:16:04;;;;;;;9.25;3.28;;;;;;;;;;5051765;28;20467;-35
2023/02/09 02:18:36;;;;;;;13.55;3.40;;;;;;;;;;5051667;28;20065;-36
2023/02/09 02:21:21;;;;;;;14.68;3.53;;;;;;;;;;5051757;28;20074;-35
2023/02/09 02:24:00;;;;;;;10.40;3.10;;;;;;;;;;5051496;28;20021;-36
2023/02/09 02:26:27;;;;;;;13.55;3.25;;;;;;;;;;5051649;28;20024;-36
2023/02/09 02:29:00;;;;;;;9.07;3.15;;;;;;;;;;5051544;28;20111;-35
2023/02/09 02:31:27;;;;;;;16.77;3.45;;;;;;;;;;5051528;28;20029;-37
2023/02/09 02:34:02;;;;;;;13.88;3.10;;;;;;;;;;5051372;28;20083;-36
2023/02/09 02:36:32;;;;;;;10.77;3.53;;;;;;;;;;5051547;28;20025;-38
2023/02/09 02:39:16;;;;;;;11.90;3.30;;;;;;;;;;5051231;28;20572;-35
2023/02/09 02:44:36;;;;;;;9.00;3.25;;;;;;;;;;5051352;28;20510;-35
2023/02/09 02:47:10;;;;;;;8.57;3.28;;;;;;;;;;5051183;28;20040;-36
2023/02/09 02:49:42;;;;;;;8.85;2.63;;;;;;;;;;5051051;28;20106;-36
2023/02/09 02:52:10;;;;;;;8.82;2.83;;;;;;;;;;5051052;28;20051;-36
2023/02/09 02:54:49;;;;;;;8.27;2.92;;;;;;;;;;5051129;28;20025;-36
2023/02/09 02:57:19;;;;;;;8.57;3.05;;;;;;;;;;5051089;28;20059;-38
2023/02/09 02:59:52;;;;;;;7.93;2.75;;;;;;;;;;5050852;28;20115;-36
2023/02/09 03:02:22;;;;;;;11.40;3.28;;;;;;;;;;5050938;28;20052;-36
2023/02/09 03:04:51;;;;;;;11.75;2.72;;;;;;;;;;5051026;28;20111;-37
2023/02/09 03:07:18;;;;;;;9.15;2.67;;;;;;;;;;5050844;28;20037;-37
2023/02/09 03:09:52;;;;;;;11.23;3.05;;;;;;;;;;5050987;28;20021;-36
2023/02/09 03:12:34;;;;;;;7.80;3.17;;;;;;;;;;5050948;28;20024;-37
2023/02/09 03:15:14;;;;;;;12.70;2.65;;;;;;;;;;5050978;28;20024;-36
2023/02/09 03:17:52;;;;;;;9.48;2.97;;;;;;;;;;5050852;28;20036;-36
2023/02/09 03:20:27;;;;;;;9.68;3.25;;;;;;;;;;5050967;28;20506;-36
2023/02/09 03:22:57;;;;;;;14.85;3.10;;;;;;;;;;5050757;28;20043;-36
2023/02/09 03:25:27;;;;;;;8.95;3.03;;;;;;;;;;5050857;28;20108;-36
2023/02/09 03:28:00;;;;;;;9.55;2.63;;;;;;;;;;5050806;28;20032;-37
2023/02/09 03:30:27;;;;;;;9.05;2.95;;;;;;;;;;5051047;28;20036;-36
2023/02/09 03:32:55;;;;;;;9.50;2.78;;;;;;;;;;5050711;28;20017;-37
2023/02/09 03:35:24;;;;;;;7.18;2.40;;;;;;;;;;5050685;28;20025;-36
2023/02/09 03:37:51;;;;;;;11.82;3.00;;;;;;;;;;5050660;28;20044;-36
2023/02/09 03:40:19;;;;;;;11.68;3.05;;;;;;;;;;5050738;28;20056;-36
2023/02/09 03:42:46;;;;;;;12.57;2.90;;;;;;;;;;5049128;28;20549;-37
2023/02/09 03:45:13;;;;;;;8.13;3.00;;;;;;;;;;5050760;28;20022;-37
2023/02/09 03:47:40;;;;;;;11.75;3.05;;;;;;;;;;5050623;28;20047;-35
2023/02/09 03:50:07;;;;;;;9.18;2.88;;;;;;;;;;5050667;28;20506;-36
2023/02/09 03:52:33;;;;;;;16.58;3.35;;;;;;;;;;5050573;28;20029;-36
2023/02/09 03:55:02;;;;;;;16.15;4.13;;;;;;;;;;5050487;28;20494;-36
2023/02/09 03:57:29;;;;;;;9.23;3.10;;;;;;;;;;5050417;28;20076;-36
2023/02/09 03:59:56;;;;;;;10.20;3.05;;;;;;;;;;5050288;28;20048;-36
2023/02/09 04:02:23;;;;;;;9.40;2.97;;;;;;;;;;5050436;28;20028;-36
2023/02/09 04:04:52;;;;;;;7.75;2.95;;;;;;;;;;5049021;28;20033;-36
2023/02/09 04:07:19;;;;;;;9.48;2.80;;;;;;;;;;5050397;28;20091;-36
2023/02/09 04:09:46;;;;;;;6.50;2.35;;;;;;;;;;5050451;28;20024;-35
2023/02/09 04:12:13;;;;;;;12.15;3.08;;;;;;;;;;5050420;28;20021;-36
2023/02/09 04:14:40;;;;;;;11.60;3.15;;;;;;;;;;5050415;28;20025;-35
2023/02/09 04:17:07;;;;;;;8.15;2.75;;;;;;;;;;5053002;28;20033;-36
2023/02/09 04:19:34;;;;;;;9.27;2.83;;;;;;;;;;5053793;28;20783;-36
2023/02/09 04:22:01;;;;;;;8.63;2.50;;;;;;;;;;5053817;28;20025;-35
2023/02/09 04:24:28;;;;;;;10.05;2.60;;;;;;;;;;5053979;28;20044;-35
2023/02/09 04:26:55;;;;;;;7.75;2.90;;;;;;;;;;5053846;28;20036;-35
2023/02/09 04:29:22;;;;;;;11.63;2.90;;;;;;;;;;5053779;28;20103;-36
2023/02/09 04:31:49;;;;;;;12.15;3.08;;;;;;;;;;5053627;28;20036;-36
2023/02/09 04:34:16;;;;;;;10.25;2.90;;;;;;;;;;5053663;28;20040;-36
2023/02/09 04:36:43;;;;;;;11.38;2.88;;;;;;;;;;5053689;28;20025;-36
2023/02/09 04:39:10;;;;;;;6.30;2.50;;;;;;;;;;5053518;28;20051;-36
2023/02/09 04:41:37;;;;;;;10.77;2.92;;;;;;;;;;5053249;28;20079;-35
2023/02/09 04:44:04;;;;;;;10.50;2.60;;;;;;;;;;5053527;28;20039;-35
2023/02/09 04:46:31;;;;;;;7.00;2.65;;;;;;;;;;5053497;28;20101;-36
2023/02/09 04:48:58;;;;;;;10.52;2.85;;;;;;;;;;5053500;28;20021;-36
2023/02/09 04:51:24;;;;;;;10.38;2.92;;;;;;;;;;5053191;28;20429;-37
2023/02/09 04:53:51;;;;;;;8.27;3.05;;;;;;;;;;5053227;28;20021;-36
2023/02/09 04:56:18;;;;;;;7.00;2.83;;;;;;;;;;5053178;28;20476;-36
2023/02/09 05:01:31;;;;;;;11.05;2.47;;;;;;;;;;5053145;28;20040;-36
2023/02/09 05:03:58;;;;;;;8.63;2.33;;;;;;;;;;5053000;28;20051;-36
2023/02/09 05:06:25;;;;;;;6.55;2.40;;;;;;;;;;5053117;28;20512;-36
2023/02/09 05:08:52;;;;;;;8.43;2.53;;;;;;;;;;5053056;28;20036;-36
2023/02/09 05:11:19;;;;;;;8.38;3.10;;;;;;;;;;5053136;28;20047;-36
2023/02/09 05:13:46;;;;;;;9.77;3.28;;;;;;;;;;5052984;28;20025;-36
2023/02/09 05:16:16;;;;;;;13.55;3.00;;;;;;;;;;5052838;28;20403;-36
2023/02/09 05:18:43;;;;;;;8.77;2.85;;;;;;;;;;5052683;28;20102;-36
2023/02/09 05:21:10;;;;;;;11.27;2.40;;;;;;;;;;5052620;28;20120;-36
2023/02/09 05:23:37;;;;;;;11.63;3.00;;;;;;;;;;5052708;28;20036;-36
2023/02/09 05:26:04;;;;;;;7.72;2.55;;;;;;;;;;5052753;28;20075;-35
2023/02/09 05:28:31;;;;;;;8.18;2.53;;;;;;;;;;5051564;28;20502;-37
2023/02/09 05:30:57;;;;;;;10.65;3.05;;;;;;;;;;5052690;28;20035;-36
2023/02/09 05:33:25;;;;;;;11.52;3.25;;;;;;;;;;5052498;28;20048;-36
2023/02/09 05:35:54;;;;;;;8.15;2.78;;;;;;;;;;5052571;28;20033;-37
2023/02/09 05:38:21;;;;;;;9.65;3.28;;;;;;;;;;5052330;28;20308;-36
2023/02/09 05:40:48;;;;;;;7.60;2.70;;;;;;;;;;5052359;28;20112;-36
2023/02/09 05:43:15;;;;;;;10.18;2.85;;;;;;;;;;5052294;28;20025;-36
2023/02/09 05:45:42;;;;;;;11.68;2.70;;;;;;;;;;5052386;28;20056;-37
2023/02/09 05:48:09;;;;;;;14.85;2.55;;;;;;;;;;5052368;28;20048;-35
2023/02/09 05:50:36;;;;;;;12.77;2.75;;;;;;;;;;5050769;28;20036;-35
2023/02/09 05:53:03;;;;;;;9.75;2.85;;;;;;;;;;5052149;28;20021;-36
2023/02/09 05:55:30;;;;;;;11.57;2.92;;;;;;;;;;5052059;28;20462;-36
2023/02/09 05:57:57;;;;;;;9.80;2.78;;;;;;;;;;5051938;28;20041;-36
2023/02/09 06:00:25;;;;;;;13.90;2.90;;;;;;;;;;5052077;28;20491;-34
2023/02/09 06:02:52;;;;;;;9.18;2.58;;;;;;;;;;5031890;28;20076;-35
2023/02/09 06:08:36;;;;;;;12.20;3.00;;;;;;;;;;5034361;28;20059;-35
2023/02/09 06:14:20;;;;;;;11.50;2.90;;;;;;;;;;5034288;28;20520;-37
2023/02/09 06:20:04;;;;;;;8.55;2.40;;;;;;;;;;5034181;28;20495;-36
2023/02/09 06:25:47;;;;;;;7.72;2.40;;;;;;;;;;5033669;28;20064;-35
2023/02/09 06:31:30;;;;;;;10.52;2.72;;;;;;;;;;5033998;28;20032;-36
2023/02/09 06:37:13;;;;;;;8.05;2.60;;;;;;;;;;5033894;28;20504;-36
2023/02/09 06:42:56;;;;;;;9.35;2.42;;;;;;;;;;5033775;28;20075;-35
2023/02/09 06:48:39;;;;;;;6.60;2.40;;;;;;;;;;5033694;28;20107;-36
2023/02/09 06:54:24;;;;;;;8.10;3.00;;;;;;;;;;5033401;28;20080;-36
2023/02/09 07:00:08;;;;;;;11.45;2.90;;;;;;;;;;5022255;28;20511;-36
2023/02/09 07:05:51;;;;;;;7.40;2.80;;;;;;;;;;5033284;28;20412;-36
2023/02/09 07:11:34;;;;;;;6.55;2.72;;;;;;;;;;5033386;28;20136;-36
2023/02/09 07:17:18;;;;;;;7.25;2.22;;;;;;;;;;5033330;28;20037;-35
2023/02/09 07:23:01;;;;;;;7.47;2.38;;;;;;;;;;5033280;28;20402;-36
2023/02/09 07:28:44;;;;;;;9.18;2.67;;;;;;;;;;5033239;28;20040;-37
2023/02/09 07:34:28;;;;;;;6.82;2.47;;;;;;;;;;5033181;28;20028;-36
2023/02/09 07:40:11;;;;;;;6.70;2.47;;;;;;;;;;5032921;28;20111;-36
2023/02/09 07:46:02;;;;;;;5.10;2.03;;;;;;;;;;5032857;28;20134;-35
2023/02/09 07:51:46;;;;;;;8.73;2.38;;;;;;;;;;5035397;28;20032;-35
2023/02/09 07:57:31;;;;;;;6.18;2.25;;;;;;;;;;5036546;28;20038;-36
2023/02/09 08:03:17;;;;;;;7.50;2.60;;;;;;;;;;5036604;28;20403;-36
2023/02/09 08:09:01;;;;;;;6.75;2.63;;;;;;;;;;5036582;28;20136;-35
2023/02/09 08:14:49;;;;;;;7.00;2.10;;;;;;;;;;5036235;28;20092;-36
2023/02/09 08:20:32;;;;;;;6.78;2.85;;;;;;;;;;5036138;28;20139;-35
2023/02/09 08:26:15;;;;;;;4.38;2.20;;;;;;;;;;5036247;28;20040;-35
2023/02/09 08:31:58;;;;;;;5.45;2.40;;;;;;;;;;5035922;28;20123;-36
2023/02/09 08:37:41;;;;;;;4.65;2.30;;;;;;;;;;5035833;28;20032;-36
2023/02/09 08:43:24;;;;;;;7.05;2.40;;;;;;;;;;5035684;28;20076;-36
2023/02/09 08:49:07;;;;;;;4.40;2.35;;;;;;;;;;5035865;28;20523;-36
2023/02/09 08:51:34;;;;;;;4.88;2.38;;;;;;;;;;5034008;28;20029;-36
2023/02/09 08:54:01;;;;;;;4.93;2.40;;;;;;;;;;5033495;28;20029;-36
2023/02/09 08:56:28;;;;;;;8.40;3.10;;;;;;;;;;5031998;28;20049;-36
2023/02/09 08:58:55;;;;;;;5.85;2.60;;;;;;;;;;5033077;28;20086;-37
2023/02/09 09:01:22;;;;;;;6.85;2.45;;;;;;;;;;5032992;28;20041;-36
2023/02/09 09:03:49;;;;;;;5.78;2.22;;;;;;;;;;5033314;28;20017;-36
2023/02/09 09:06:16;;;;;;;9.52;2.85;;;;;;;;;;5033162;28;20041;-36
2023/02/09 09:08:43;;;;;;;8.02;2.50;;;;;;;;;;5033222;28;20025;-36
2023/02/09 09:11:11;;;;;;;4.85;2.60;;;;;;;;;;5033039;28;20504;-37
2023/02/09 09:13:39;;;;;;;9.23;2.25;;;;;;;;;;5032941;28;20052;-37
2023/02/09 09:16:06;;;;;;;6.93;2.63;;;;;;;;;;5033029;28;20033;-36
2023/02/09 09:18:33;;;;;;;4.93;2.55;;;;;;;;;;5032932;28;20037;-37
2023/02/09 09:21:00;;;;;;;5.90;2.08;;;;;;;;;;5031596;28;20495;-36
2023/02/09 09:23:27;;;;;;;10.23;2.55;;;;;;;;;;5032770;28;20032;-36
2023/02/09 09:25:54;;;;;;;7.28;2.20;;;;;;;;;;5032638;28;20458;-36
2023/02/09 09:28:21;;;;;;;6.32;2.33;;;;;;;;;;5032838;28;20793;-36
2023/02/09 09:30:48;;;;;;;4.88;2.28;;;;;;;;;;5032698;28;20022;-36
2023/02/09 09:33:15;;;;;;;4.90;2.20;;;;;;;;;;5032712;28;20021;-37
2023/02/09 09:35:42;;;;;;;7.47;2.45;;;;;;;;;;5032647;28;20045;-36
2023/02/09 09:38:09;;;;;;;10.52;2.47;;;;;;;;;;5032538;28;20442;-37
2023/02/09 09:40:39;;;;;;;7.57;2.42;;;;;;;;;;5032564;28;20537;-37
2023/02/09 09:43:14;;;;;;;8.63;2.58;;;;;;;;;;5032194;28;20495;-36
2023/02/09 09:45:41;;;;;;;6.80;2.30;;;;;;;;;;5032498;28;20476;-37
2023/02/09 09:48:18;;;;;;;8.13;2.72;;;;;;;;;;5032291;28;20411;-35
2023/02/09 09:50:46;;;;;;;12.15;3.00;;;;;;;;;;5032359;28;20495;-36
2023/02/09 09:53:35;;;;;;;7.40;2.75;;;;;;;;;;5032210;28;20036;-36
2023/02/09 09:56:05;;;;;;;8.18;2.63;;;;;;;;;;5032243;28;20029;-36
2023/02/09 09:58:33;;;;;;;14.15;3.17;;;;;;;;;;5032177;28;20037;-36
2023/02/09 10:01:00;;;;;;;13.20;3.03;;;;;;;;;;5031943;28;20434;-36
2023/02/09 10:03:27;;;;;;;13.70;3.25;;;;;;;;;;5031990;28;20396;-35
2023/02/09 10:05:56;;;;;;;17.65;3.15;;;;;;;;;;5031926;28;20083;-36
2023/02/09 10:08:22;;;;;;;11.70;2.78;;;;;;;;;;5032047;28;20363;-36
2023/02/09 10:10:53;;;;;;;11.40;2.85;;;;;;;;;;5032050;28;20022;-36
2023/02/09 10:13:30;;;;;;;8.18;2.80;;;;;;;;;;5031320;28;20365;-36
2023/02/09 10:15:58;;;;;;;9.05;2.65;;;;;;;;;;5031887;28;20033;-36
2023/02/09 10:18:25;;;;;;;13.55;2.90;;;;;;;;;;5030325;28;20473;-36
2023/02/09 10:20:56;;;;;;;5.95;2.33;;;;;;;;;;5031713;28;20033;-35
2023/02/09 10:23:25;;;;;;;6.65;2.72;;;;;;;;;;5031624;28;20049;-36
2023/02/09 10:25:59;;;;;;;8.13;2.78;;;;;;;;;;5031784;28;20096;-35
2023/02/09 10:28:28;;;;;;;9.85;2.80;;;;;;;;;;5031621;28;20515;-36
2023/02/09 10:30:56;;;;;;;9.32;2.92;;;;;;;;;;5031601;28;20026;-35
2023/02/09 10:33:23;;;;;;;11.80;2.50;;;;;;;;;;5031535;28;20805;-36
2023/02/09 10:35:57;;;;;;;8.65;3.20;;;;;;;;;;5031434;28;20457;-36
2023/02/09 10:38:27;;;;;;;9.63;2.92;;;;;;;;;;5031408;28;20507;-36
2023/02/09 10:40:54;;;;;;;12.80;3.15;;;;;;;;;;5031533;28;20040;-36
2023/02/09 10:43:21;;;;;;;12.95;2.85;;;;;;;;;;5031376;28;20025;-36
2023/02/09 10:45:53;;;;;;;6.97;2.60;;;;;;;;;;5031413;28;20132;-36
2023/02/09 10:48:20;;;;;;;8.13;2.43;;;;;;;;;;5031430;28;20033;-35
2023/02/09 10:50:57;;;;;;;11.13;3.33;;;;;;;;;;5029942;28;20026;-36
2023/02/09 10:53:29;;;;;;;12.30;3.38;;;;;;;;;;5031294;28;20025;-36
2023/02/09 10:56:04;;;;;;;10.25;2.63;;;;;;;;;;5031290;28;20082;-37
2023/02/09 10:58:32;;;;;;;11.23;2.78;;;;;;;;;;5031066;28;20562;-36
2023/02/09 11:01:11;;;;;;;12.63;3.30;;;;;;;;;;5030923;28;20519;-36
2023/02/09 11:03:55;;;;;;;10.32;3.08;;;;;;;;;;5031160;28;20079;-36
2023/02/09 11:06:22;;;;;;;8.82;2.72;;;;;;;;;;5031213;28;20483;-36
2023/02/09 11:08:56;;;;;;;7.60;2.55;;;;;;;;;;5031118;28;20029;-36
2023/02/09 11:11:27;;;;;;;13.63;3.40;;;;;;;;;;5031039;28;20022;-36
2023/02/09 11:13:54;;;;;;;11.32;2.88;;;;;;;;;;5030986;28;20104;-37
2023/02/09 11:16:24;;;;;;;13.25;2.83;;;;;;;;;;5031076;28;20033;-36
2023/02/09 11:18:57;;;;;;;10.48;3.30;;;;;;;;;;5030965;28;20462;-36
2023/02/09 11:21:36;;;;;;;6.05;3.03;;;;;;;;;;5030886;28;20022;-36
2023/02/09 11:24:03;;;;;;;8.48;2.65;;;;;;;;;;5030911;28;20034;-37
2023/02/09 11:26:30;;;;;;;12.38;3.03;;;;;;;;;;5033129;28;20025;-37
2023/02/09 11:28:59;;;;;;;10.48;2.90;;;;;;;;;;5035032;28;20032;-36
2023/02/09 11:31:32;;;;;;;8.77;3.00;;;;;;;;;;5034978;28;20037;-36
2023/02/09 11:34:13;;;;;;;15.05;3.55;;;;;;;;;;5046046;28;20025;-36
2023/02/09 11:37:02;;;;;;;9.85;3.28;;;;;;;;;;5054878;28;20042;-37
2023/02/09 11:39:51;;;;;;;12.25;3.08;;;;;;;;;;5054744;28;20119;-35
2023/02/09 11:43:06;;;;;;;9.65;2.90;;;;;;;;;;5054603;28;20028;-36
2023/02/09 11:45:17;;;;;;;8.27;2.58;;;;;;;;;;5046250;28;20036;-36
2023/02/09 11:48:02;;;;;;;7.70;3.00;;;;;;;;;;5054605;28;20112;-36
2023/02/09 11:50:47;;;;;;;9.30;3.17;;;;;;;;;;5054587;28;20021;-36
2023/02/09 11:53:20;;;;;;;10.55;3.20;;;;;;;;;;5054474;28;20130;-36
2023/02/09 11:55:48;;;;;;;9.48;2.83;;;;;;;;;;5054564;28;20021;-36
2023/02/09 11:58:26;;;;;;;10.38;3.38;;;;;;;;;;5054160;28;20045;-35
2023/02/09 12:01:19;;;;;;;11.98;3.05;;;;;;;;;;5054162;28;20053;-36
2023/02/09 12:03:55;;;;;;;11.63;3.10;;;;;;;;;;5024023;28;20033;-35
2023/02/09 12:06:23;;;;;;;10.43;3.30;;;;;;;;;;5054108;28;20110;-36
2023/02/09 12:08:49;;;;;;;7.70;2.95;;;;;;;;;;5052727;28;20384;-36
2023/02/09 12:11:28;;;;;;;13.27;3.00;;;;;;;;;;5054084;28;20395;-35
2023/02/09 12:14:04;;;;;;;6.22;2.72;;;;;;;;;;5054209;28;20067;-36
2023/02/09 12:16:33;;;;;;;7.25;3.00;;;;;;;;;;5054190;28;20064;-36
2023/02/09 12:19:02;;;;;;;11.07;3.05;;;;;;;;;;5053818;28;20057;-36
2023/02/09 12:21:34;;;;;;;8.73;3.13;;;;;;;;;;5053793;28;20028;-35
2023/02/09 12:24:01;;;;;;;7.32;3.13;;;;;;;;;;5053729;28;20102;-35
2023/02/09 12:26:36;;;;;;;10.25;3.25;;;;;;;;;;5053770;28;20124;-35
2023/02/09 12:29:21;;;;;;;10.93;3.17;;;;;;;;;;5053796;28;20049;-36
2023/02/09 12:32:14;;;;;;;13.45;3.35;;;;;;;;;;5053833;28;20029;-35
2023/02/09 12:34:42;;;;;;;7.80;3.33;;;;;;;;;;5050380;28;20144;-36
2023/02/09 12:37:18;;;;;;;9.48;3.00;;;;;;;;;;5053124;28;20028;-36
2023/02/09 12:40:04;;;;;;;10.70;3.45;;;;;;;;;;5053553;28;20059;-36
2023/02/09 12:42:38;;;;;;;9.18;3.35;;;;;;;;;;5053554;28;20068;-36
2023/02/09 12:45:24;;;;;;;8.68;3.30;;;;;;;;;;5053521;28;20064;-36
2023/02/09 12:47:58;;;;;;;11.52;3.55;;;;;;;;;;5053558;28;20021;-35
2023/02/09 12:50:51;;;;;;;9.35;3.13;;;;;;;;;;5053437;28;20035;-37
2023/02/09 12:53:25;;;;;;;12.20;3.20;;;;;;;;;;5050128;28;20037;-35
2023/02/09 12:56:10;;;;;;;7.93;3.28;;;;;;;;;;5053221;28;20033;-36
2023/02/09 12:58:53;;;;;;;7.00;3.20;;;;;;;;;;5053291;28;20037;-36
2023/02/09 13:01:21;;;;;;;8.20;3.65;;;;;;;;;;5053180;28;20033;-35
2023/02/09 13:03:54;;;;;;;9.38;3.47;;;;;;;;;;5053290;28;20151;-36
2023/02/09 13:06:28;;;;;;;7.40;2.80;;;;;;;;;;5053190;28;20068;-35
2023/02/09 13:08:57;;;;;;;7.38;3.28;;;;;;;;;;5053144;28;20033;-36
2023/02/09 13:11:28;;;;;;;10.25;3.10;;;;;;;;;;5052979;28;20082;-36
2023/02/09 13:13:57;;;;;;;10.00;3.63;;;;;;;;;;5053083;28;20021;-36
2023/02/09 13:16:24;;;;;;;9.77;3.65;;;;;;;;;;5052972;28;20078;-36
2023/02/09 13:18:58;;;;;;;8.82;3.25;;;;;;;;;;5052900;28;20036;-35
2023/02/09 13:21:25;;;;;;;7.63;3.15;;;;;;;;;;5052777;28;20025;-37
2023/02/09 13:23:55;;;;;;;6.85;3.55;;;;;;;;;;5052961;28;20045;-36
2023/02/09 13:26:23;;;;;;;7.90;2.95;;;;;;;;;;5052784;28;20108;-37
2023/02/09 13:29:05;;;;;;;10.73;3.35;;;;;;;;;;5052743;28;20033;-36
2023/02/09 13:31:38;;;;;;;7.72;3.05;;;;;;;;;;5052547;28;20041;-36
2023/02/09 13:34:23;;;;;;;9.07;3.17;;;;;;;;;;5052505;28;20033;-36
2023/02/09 13:37:03;;;;;;;13.45;3.53;;;;;;;;;;5051122;28;20437;-37
2023/02/09 13:39:32;;;;;;;12.20;3.50;;;;;;;;;;5052450;28;20499;-36
2023/02/09 13:41:59;;;;;;;11.85;3.30;;;;;;;;;;5052403;28;20029;-36
2023/02/09 13:44:28;;;;;;;8.05;3.28;;;;;;;;;;5052489;28;20120;-36
2023/02/09 13:46:58;;;;;;;10.18;3.40;;;;;;;;;;5052391;28;20021;-36
2023/02/09 13:49:27;;;;;;;7.30;3.17;;;;;;;;;;5051388;28;20033;-35
2023/02/09 13:52:19;;;;;;;9.02;3.45;;;;;;;;;;5052053;28;20045;-36
2023/02/09 13:54:46;;;;;;;;;;;;;;;;;;5044031;28;20052;-36
2023/02/09 13:57:36;;;;;;;14.75;3.58;;;;;;;;;;5052206;28;19912;-35
2023/02/09 14:00:14;;;;;;;14.40;3.85;;;;;;;;;;5041870;28;20518;-37
2023/02/09 14:02:44;;;;;;;11.98;3.60;;;;;;;;;;5052054;28;20021;-35
2023/02/09 14:05:11;;;;;;;10.38;3.75;;;;;;;;;;5052035;28;20474;-36
2023/02/09 14:07:38;;;;;;;8.20;3.83;;;;;;;;;;5051938;28;20048;-36
2023/02/09 14:10:10;;;;;;;12.70;3.90;;;;;;;;;;5051881;28;20506;-36
2023/02/09 14:12:54;;;;;;;;;;;;;;;;;;5052332;28;20025;-35
2023/02/09 14:18:23;;;;;;;17.05;3.72;;;;;;;;;;5051593;28;20052;-36
2023/02/09 14:21:01;;;;;;;12.82;4.03;;;;;;;;;;5051525;28;20033;-35
2023/02/09 14:23:31;;;;;;;13.07;3.63;;;;;;;;;;5050238;28;20029;-36
2023/02/09 14:26:06;;;;;;;14.07;4.00;;;;;;;;;;5051544;28;20036;-35
2023/02/09 14:28:34;;;;;;;9.27;3.90;;;;;;;;;;5051383;28;20040;-36
2023/02/09 14:31:01;;;;;;;13.98;3.97;;;;;;;;;;5051485;28;20021;-37
2023/02/09 14:33:30;;;;;;;10.10;3.60;;;;;;;;;;5051558;28;20025;-35
2023/02/09 14:36:00;;;;;;;12.43;4.00;;;;;;;;;;5051414;28;20083;-36
2023/02/09 14:38:36;;;;;;;15.25;4.20;;;;;;;;;;5051159;28;20076;-36
2023/02/09 14:41:18;;;;;;;15.73;4.13;;;;;;;;;;5051261;28;20024;-38
2023/02/09 14:43:56;;;;;;;10.50;3.42;;;;;;;;;;5051370;28;20025;-36
2023/02/09 14:46:23;;;;;;;12.88;3.90;;;;;;;;;;5049777;28;20037;-36
2023/02/09 14:48:50;;;;;;;17.42;3.75;;;;;;;;;;5049855;28;20041;-36
2023/02/09 14:51:18;;;;;;;15.48;4.15;;;;;;;;;;5050984;28;20044;-35
2023/02/09 14:53:44;;;;;;;13.35;4.07;;;;;;;;;;5051209;28;20024;-37
2023/02/09 14:56:22;;;;;;;14.57;4.80;;;;;;;;;;5051061;28;20029;-36
2023/02/09 14:58:49;;;;;;;17.60;4.45;;;;;;;;;;5050992;28;20031;-36
2023/02/09 15:01:16;;;;;;;17.58;4.22;;;;;;;;;;5050551;28;20048;-37
2023/02/09 15:03:43;;;;;;;14.57;4.72;;;;;;;;;;5051021;28;20025;-36
2023/02/09 15:06:11;;;;;;;15.25;4.53;;;;;;;;;;5051017;28;20024;-37
2023/02/09 15:08:38;;;;;;;17.08;4.82;;;;;;;;;;5051011;28;20040;-36
2023/02/09 15:14:00;;;;;;;18.58;4.53;;;;;;;;;;5019617;28;20039;-36
2023/02/09 15:16:27;;;;;;;23.63;4.90;;;;;;;;;;5050820;28;20369;-36
2023/02/09 15:18:54;;;;;;;18.00;5.13;;;;;;;;;;5050799;28;20040;-37
2023/02/09 15:21:21;;;;;;;17.63;4.78;;;;;;;;;;5050795;28;20029;-36
2023/02/09 15:23:48;;;;;;;16.27;4.60;;;;;;;;;;5050935;28;20020;-36
2023/02/09 15:26:16;;;;;;;19.63;5.13;;;;;;;;;;5049358;28;20522;-36
2023/02/09 15:28:43;;;;;;;16.25;4.20;;;;;;;;;;5050772;28;20086;-37
2023/02/09 15:31:12;;;;;;;26.27;5.38;;;;;;;;;;5050711;28;20025;-36
2023/02/09 15:33:39;;;;;;;16.55;4.78;;;;;;;;;;5050755;28;20028;-37
2023/02/09 15:36:07;;;;;;;23.27;4.60;;;;;;;;;;5050799;28;20048;-35
2023/02/09 15:38:34;;;;;;;22.08;4.88;;;;;;;;;;5050580;28;20032;-36
2023/02/09 15:49:16;;;;;;;21.10;4.72;;;;;;;;;;5050531;28;20040;-35
2023/02/09 15:51:43;;;;;;;24.42;5.07;;;;;;;;;;5050438;28;20391;-36
2023/02/09 15:54:21;;;;;;;19.70;5.18;;;;;;;;;;5050634;28;20037;-36
2023/02/09 15:56:48;;;;;;;25.33;5.43;;;;;;;;;;5050527;28;20025;-36
2023/02/09 15:59:24;;;;;;;20.13;5.15;;;;;;;;;;5050178;28;20045;-35
2023/02/09 16:01:51;;;;;;;21.02;5.50;;;;;;;;;;5050444;28;20065;-36
2023/02/09 16:04:18;;;;;;;27.88;5.47;;;;;;;;;;5050368;28;20041;-35
2023/02/09 16:06:53;;;;;;;20.85;5.05;;;;;;;;;;5050440;28;20060;-36
2023/02/09 16:09:27;;;;;;;28.83;5.70;;;;;;;;;;5050340;28;20107;-35
2023/02/09 16:11:54;;;;;;;22.60;5.80;;;;;;;;;;5051334;28;20033;-35
2023/02/09 16:14:22;;;;;;;24.75;5.68;;;;;;;;;;5054178;28;20053;-36
2023/02/09 16:16:49;;;;;;;19.70;6.22;;;;;;;;;;5054088;28;20104;-36
2023/02/09 16:19:17;;;;;;;20.25;5.65;;;;;;;;;;5053915;28;20480;-36
2023/02/09 16:21:46;;;;;;;27.02;5.95;;;;;;;;;;5053881;28;20040;-36
2023/02/09 16:24:24;;;;;;;17.52;4.95;;;;;;;;;;5053921;28;20537;-36
2023/02/09 16:26:51;;;;;;;21.35;5.03;;;;;;;;;;5053844;28;20035;-36
2023/02/09 16:29:18;;;;;;;31.30;5.50;;;;;;;;;;5053746;28;20024;-36
2023/02/09 16:31:45;;;;;;;26.38;5.90;;;;;;;;;;5053648;28;20537;-36
2023/02/09 16:34:14;;;;;;;24.60;5.70;;;;;;;;;;5053687;28;20059;-35
2023/02/09 16:36:41;;;;;;;19.67;5.25;;;;;;;;;;5053601;28;20037;-36
2023/02/09 16:39:21;;;;;;;18.73;4.95;;;;;;;;;;5053578;28;20060;-35
2023/02/09 16:41:49;;;;;;;14.80;4.82;;;;;;;;;;5053549;28;20037;-36
2023/02/09 16:44:23;;;;;;;21.45;5.47;;;;;;;;;;5053321;28;20037;-36
2023/02/09 16:46:52;;;;;;;19.50;5.32;;;;;;;;;;5053536;28;20036;-36
2023/02/09 16:49:31;;;;;;;20.55;5.25;;;;;;;;;;5053381;28;20510;-35
2023/02/09 16:52:01;;;;;;;20.38;5.60;;;;;;;;;;5053367;28;20104;-37
2023/02/09 16:54:30;;;;;;;15.20;5.10;;;;;;;;;;5053320;28;20028;-36